Kirkella — 2HFI8 — position and weather

sailwx.info

Track history (hours):
 
Tides and Currents Weather Stations Pressure Air Temp Water Temp Dewpoint Dewpoint Depression Visibility Wind Speed Wind Dir Waves Ship Positions

Kirkella

Last reported at 2018-Jun-07 17:11 UTC. Time now 2018-Jun-20 11:36 UTC.
Position N 48°42' W 005°55'.
Warning: this ship's position is 12 days out of date.

Length 84 m; draft 6.5 m.

Type: Fishing. MMSI: 235103197.

Date/timePositionNaut miles runAvg speedWind from/ knotsBaromVisibWave heightAir tempDewpointWater temp
2018-Jun-07 17:11N 48°42' W 005°55'413.6
2018-Jun-07 16:54N 48°46' W 005°52'1013.4
2018-Jun-07 16:11N 48°53' W 005°43'313.5
2018-Jun-07 15:56N 48°55' W 005°39'1113.6
2018-Jun-07 15:09N 49°01' W 005°25'213.5
2018-Jun-07 15:00N 49°02' W 005°22'713.4
2018-Jun-07 14:28N 49°05' W 005°12'7212.6
2018-Jun-07 08:45N 49°41' W 003°37'413.2
2018-Jun-07 08:28N 49°43' W 003°32'613.4
2018-Jun-07 08:00N 49°46' W 003°24'713.6
2018-Jun-07 07:30N 49°49' W 003°15'713.8
2018-Jun-07 07:00N 49°53' W 003°06'714.0
2018-Jun-07 06:30N 49°56' W 002°56'714.0
2018-Jun-07 06:00N 49°59' W 002°46'713.9
2018-Jun-07 05:30N 50°01' W 002°36'713.7
2018-Jun-07 05:00N 50°03' W 002°26'813.3
2018-Jun-07 04:26N 50°05' W 002°14'512.9
2018-Jun-07 04:00N 50°07' W 002°06'612.3
2018-Jun-07 03:30N 50°09' W 001°57'611.9
2018-Jun-07 03:00N 50°10' W 001°48'611.5
2018-Jun-07 02:30N 50°12' W 001°39'611.3
2018-Jun-07 02:01N 50°13' W 001°31'611.1
2018-Jun-07 01:30N 50°15' W 001°22'611.1
2018-Jun-07 01:00N 50°17' W 001°14'1411.7
2018-Jun-06 23:51N 50°21' W 000°54'412.5
2018-Jun-06 23:31N 50°22' W 000°48'612.7
2018-Jun-06 23:00N 50°24' W 000°38'713.1
2018-Jun-06 22:29N 50°26' W 000°28'713.5
2018-Jun-06 22:00N 50°28' W 000°18'713.7
2018-Jun-06 21:30N 50°30' W 000°08'713.8
2018-Jun-06 21:00N 50°32' E 000°02'713.9
2018-Jun-06 20:30N 50°34' E 000°13'713.9
2018-Jun-06 20:00N 50°36' E 000°23'713.7
2018-Jun-06 19:31N 50°39' E 000°33'713.4
2018-Jun-06 19:01N 50°42' E 000°43'612.9
2018-Jun-06 18:30N 50°45' E 000°51'612.4
2018-Jun-06 18:00N 50°49' E 000°59'712.2
2018-Jun-06 17:27N 50°53' E 001°08'511.9
2018-Jun-06 17:00N 50°56' E 001°15'611.4
2018-Jun-06 16:30N 51°00' E 001°21'611.9
2018-Jun-06 16:00N 51°03' E 001°29'612.5
2018-Jun-06 15:30N 51°08' E 001°36'612.6
2018-Jun-06 15:00N 51°12' E 001°43'713.5
2018-Jun-06 14:30N 51°18' E 001°48'714.1
2018-Jun-06 14:00N 51°25' E 001°52'714.0
2018-Jun-06 13:30N 51°31' E 001°55'714.1
2018-Jun-06 13:00N 51°38' E 001°60'713.8
2018-Jun-06 12:30N 51°44' E 002°04'713.5
2018-Jun-06 11:59N 51°51' E 002°08'613.0
2018-Jun-06 11:30N 51°57' E 002°12'712.5
2018-Jun-06 10:59N 52°03' E 002°14'612.1
2018-Jun-06 10:30N 52°09' E 002°16'611.7
2018-Jun-06 10:00N 52°15' E 002°17'611.4
2018-Jun-06 09:30N 52°20' E 002°18'611.0
2018-Jun-06 09:00N 52°26' E 002°19'611.7
2018-Jun-06 08:30N 52°32' E 002°19'611.8
2018-Jun-06 07:59N 52°38' E 002°18'612.1
2018-Jun-06 07:30N 52°44' E 002°18'611.7
2018-Jun-06 07:00N 52°49' E 002°16'611.9
2018-Jun-06 06:30N 52°55' E 002°13'611.7
2018-Jun-06 06:00N 52°60' E 002°07'611.4
2018-Jun-06 05:30N 53°03' E 001°60'611.2
2018-Jun-06 05:00N 53°07' E 001°52'611.4
2018-Jun-06 04:30N 53°10' E 001°45'611.4
2018-Jun-06 04:00N 53°13' E 001°37'611.5
2018-Jun-06 03:30N 53°17' E 001°29'611.7
2018-Jun-06 02:58N 53°20' E 001°20'511.9
2018-Jun-06 02:30N 53°22' E 001°12'811.9
2018-Jun-06 01:48N 53°25' E 000°59'412.0
2018-Jun-06 01:30N 53°27' E 000°53'612.1
2018-Jun-06 01:00N 53°29' E 000°43'711.3
2018-Jun-06 00:22N 53°31' E 000°32'511.7
2018-Jun-05 23:57N 53°32' E 000°24'510.2
2018-Jun-05 23:27N 53°32' E 000°16'6 2.5
2018-Jun-05 21:13N 53°34' E 000°06'310.6
2018-Jun-05 20:58N 53°35' E 000°02'612.1
2018-Jun-05 20:30N 53°37' W 000°06'5 9.5
2018-Jun-05 20:00N 53°40' W 000°13'5 9.4
2018-Jun-05 19:30N 53°44' W 000°16'0 0.8
2018-Jun-05 18:59N 53°44' W 000°16'0 0.5
2018-Jun-05 18:29N 53°45' W 000°16'0 0.0
2018-Jun-05 17:59N 53°45' W 000°16'0 0.0
2018-Jun-05 17:29N 53°45' W 000°16'0 0.0
2018-Jun-05 16:59N 53°45' W 000°16'0 0.0
2018-Jun-05 16:29N 53°45' W 000°16'0 0.0
2018-Jun-05 15:59N 53°45' W 000°16'0 0.0
2018-Jun-05 15:29N 53°45' W 000°16'0 0.0
2018-Jun-05 14:59N 53°45' W 000°16'0 0.0
2018-Jun-05 14:29N 53°45' W 000°16'0 0.0
2018-Jun-05 13:59N 53°45' W 000°16'0 0.0
2018-Jun-05 13:29N 53°45' W 000°16'0 0.0
2018-Jun-05 12:59N 53°45' W 000°16'0 0.0
2018-Jun-05 12:29N 53°45' W 000°16'0 0.0
2018-Jun-05 11:59N 53°45' W 000°16'0 0.0
2018-Jun-05 11:29N 53°45' W 000°16'0 0.0
2018-Jun-05 10:59N 53°45' W 000°16'0 0.0
2018-Jun-05 10:29N 53°45' W 000°16'0 0.0
2018-Jun-05 09:59N 53°45' W 000°16'0 0.0
2018-Jun-05 09:29N 53°45' W 000°16'0 0.0
2018-Jun-05 08:59N 53°45' W 000°16'0 0.0
2018-Jun-05 08:29N 53°45' W 000°16'0 0.0
2018-Jun-05 07:59N 53°45' W 000°16'0 0.0
2018-Jun-05 07:29N 53°45' W 000°16'0 0.0
2018-Jun-05 06:59N 53°45' W 000°16'0 0.0
2018-Jun-05 06:29N 53°45' W 000°16'0 0.0
2018-Jun-05 05:59N 53°45' W 000°16'0 0.0
2018-Jun-05 05:29N 53°45' W 000°16'0 0.0
2018-Jun-05 05:00N 53°45' W 000°16'0 0.0
2018-Jun-05 04:30N 53°45' W 000°16'0 0.0
2018-Jun-05 04:00N 53°45' W 000°16'0 0.0
2018-Jun-05 03:30N 53°45' W 000°16'0 0.0
2018-Jun-05 03:00N 53°45' W 000°16'0 0.0
2018-Jun-05 02:30N 53°45' W 000°16'0 0.0
2018-Jun-05 02:01N 53°45' W 000°16'0 0.0
2018-Jun-05 01:30N 53°45' W 000°16'0 0.0
2018-Jun-05 01:00N 53°45' W 000°16'0 0.0
2018-Jun-05 00:30N 53°45' W 000°16'0 0.0
2018-Jun-05 00:00N 53°45' W 000°16'0 0.0
2018-Jun-04 23:29N 53°45' W 000°16'0 0.0
2018-Jun-04 23:00N 53°45' W 000°16'0 0.0
2018-Jun-04 22:30N 53°45' W 000°16'0 0.0
2018-Jun-04 22:00N 53°45' W 000°16'0 0.0
2018-Jun-04 21:30N 53°45' W 000°16'0 0.0
2018-Jun-04 21:00N 53°45' W 000°16'0 0.0
2018-Jun-04 20:30N 53°45' W 000°16'0 0.0
2018-Jun-04 20:00N 53°45' W 000°16'0 0.0
2018-Jun-04 19:30N 53°45' W 000°16'0 0.0
2018-Jun-04 19:00N 53°45' W 000°16'0 0.0
2018-Jun-04 18:29N 53°45' W 000°16'0 0.0
2018-Jun-04 18:00N 53°45' W 000°16'0 0.0
2018-Jun-04 17:30N 53°45' W 000°16'0 0.0
2018-Jun-04 17:00N 53°45' W 000°16'0 0.0
2018-Jun-04 16:30N 53°45' W 000°16'0 0.0
2018-Jun-04 16:00N 53°45' W 000°16'0 0.0
2018-Jun-04 15:30N 53°45' W 000°16'0 0.0
2018-Jun-04 15:00N 53°45' W 000°16'0 0.0
2018-Jun-04 14:30N 53°45' W 000°16'0 0.0
2018-Jun-04 13:59N 53°45' W 000°16'0 0.0
2018-Jun-04 13:30N 53°45' W 000°16'0 0.0
2018-Jun-04 13:00N 53°45' W 000°16'0 0.0
2018-Jun-04 12:30N 53°45' W 000°16'0 0.0
2018-Jun-04 12:00N 53°45' W 000°16'0 0.0
2018-Jun-04 11:30N 53°45' W 000°16'0 0.0
2018-Jun-04 11:00N 53°45' W 000°16'0 0.0
2018-Jun-04 10:30N 53°45' W 000°16'0 0.0
2018-Jun-04 10:00N 53°45' W 000°16'0 0.0
2018-Jun-04 09:30N 53°45' W 000°16'0 0.0
2018-Jun-04 09:00N 53°45' W 000°16'0 0.0
2018-Jun-04 08:29N 53°45' W 000°16'0 0.0
2018-Jun-04 08:00N 53°45' W 000°16'0 0.0
2018-Jun-04 07:30N 53°45' W 000°16'0 0.0
2018-Jun-04 07:00N 53°45' W 000°16'0 0.0
2018-Jun-04 06:30N 53°45' W 000°16'0 0.0
2018-Jun-04 06:00N 53°45' W 000°16'0 0.0
2018-Jun-04 05:30N 53°45' W 000°16'0 0.0
2018-Jun-04 05:00N 53°45' W 000°16'0 0.0
2018-Jun-04 04:30N 53°45' W 000°16'0 0.0
2018-Jun-04 04:00N 53°45' W 000°16'0 0.0
2018-Jun-04 03:30N 53°45' W 000°16'0 0.0
2018-Jun-04 03:00N 53°45' W 000°16'0 0.0
2018-Jun-04 02:30N 53°45' W 000°16'0 0.0
2018-Jun-04 02:00N 53°45' W 000°16'0 0.0
2018-Jun-04 01:29N 53°45' W 000°16'0 0.0
2018-Jun-04 01:00N 53°45' W 000°16'0 0.0
2018-Jun-04 00:30N 53°45' W 000°16'0 0.0
2018-Jun-04 00:00N 53°45' W 000°16'0 0.0
2018-Jun-03 23:30N 53°45' W 000°16'0 0.0
2018-Jun-03 23:00N 53°45' W 000°16'0 0.0
2018-Jun-03 22:30N 53°45' W 000°16'0 0.0
2018-Jun-03 22:00N 53°45' W 000°16'0 0.0
2018-Jun-03 21:30N 53°45' W 000°16'0 0.0
2018-Jun-03 21:00N 53°45' W 000°16'0 0.0
2018-Jun-03 20:30N 53°45' W 000°16'0 0.0
2018-Jun-03 20:00N 53°45' W 000°16'0 0.0
2018-Jun-03 19:30N 53°45' W 000°16'0 0.0
2018-Jun-03 19:00N 53°45' W 000°16'0 0.0
2018-Jun-03 18:30N 53°45' W 000°16'0 0.0
2018-Jun-03 18:00N 53°45' W 000°16'0 0.0
2018-Jun-03 17:30N 53°45' W 000°16'0 0.0
2018-Jun-03 17:00N 53°45' W 000°16'0 0.0
2018-Jun-03 16:30N 53°45' W 000°16'0 0.0
2018-Jun-03 16:00N 53°45' W 000°16'0 0.0
2018-Jun-03 15:30N 53°45' W 000°16'0 0.0
2018-Jun-03 15:00N 53°45' W 000°16'0 0.0
2018-Jun-03 14:30N 53°45' W 000°16'0 0.0
2018-Jun-03 14:00N 53°45' W 000°16'0 0.0
2018-Jun-03 13:30N 53°45' W 000°16'0 0.0
2018-Jun-03 13:00N 53°45' W 000°16'0 0.0
2018-Jun-03 12:30N 53°45' W 000°16'0 0.0
2018-Jun-03 12:00N 53°45' W 000°16'0 0.0
2018-Jun-03 11:30N 53°45' W 000°16'0 0.0
2018-Jun-03 11:00N 53°45' W 000°16'0 0.0
2018-Jun-03 10:30N 53°45' W 000°16'0 0.0
2018-Jun-03 10:00N 53°45' W 000°16'0 0.0
2018-Jun-03 09:30N 53°45' W 000°16'0 0.0
2018-Jun-03 09:00N 53°45' W 000°16'0 0.0
2018-Jun-03 08:30N 53°45' W 000°16'0 0.5
2018-Jun-03 08:00N 53°44' W 000°16'0 0.4
2018-Jun-03 07:30N 53°44' W 000°17'3 5.3
2018-Jun-03 07:00N 53°42' W 000°14'511.1
2018-Jun-03 06:31N 53°38' W 000°09'30 7.9
2018-Jun-03 02:47N 53°57' E 000°29'311.8
2018-Jun-03 02:30N 54°00' E 000°31'710.4
2018-Jun-03 01:52N 54°07' E 000°33'4 9.8
2018-Jun-03 01:30N 54°10' E 000°34'12111.3
2018-Jun-02 14:44N 56°08' E 001°28'312.5
2018-Jun-02 14:30N 56°10' E 001°29'912.6
2018-Jun-02 13:48N 56°19' E 001°33'712.4
2018-Jun-02 13:14N 56°26' E 001°37'312.4
2018-Jun-02 12:59N 56°29' E 001°38'712.4
2018-Jun-02 12:25N 56°36' E 001°42'512.3
2018-Jun-02 12:00N 56°40' E 001°44'30312.2
2018-Jun-01 11:05N 61°32' E 004°20'112.1
2018-Jun-01 11:00N 61°33' E 004°21'612.0
2018-Jun-01 10:30N 61°39' E 004°25'612.0
2018-Jun-01 10:00N 61°45' E 004°28'611.9
2018-Jun-01 09:30N 61°51' E 004°32'611.6
2018-Jun-01 08:59N 61°56' E 004°36'612.3
2018-Jun-01 08:30N 62°02' E 004°39'612.5
2018-Jun-01 08:00N 62°08' E 004°44'612.5
2018-Jun-01 07:30N 62°14' E 004°50'612.2
2018-Jun-01 07:00N 62°19' E 004°55'612.2
2018-Jun-01 06:30N 62°25' E 005°02'612.3
2018-Jun-01 05:59N 62°30' E 005°08'612.1
2018-Jun-01 05:30N 62°35' E 005°13'611.7
2018-Jun-01 05:00N 62°41' E 005°19'35711.8
2018-May-30 22:50N 67°52' E 012°17'412.3
2018-May-30 22:30N 67°55' E 012°22'612.0
2018-May-30 22:00N 68°01' E 012°30'612.1
2018-May-30 21:30N 68°06' E 012°39'612.1
2018-May-30 20:59N 68°11' E 012°48'612.2
2018-May-30 20:30N 68°16' E 012°57'612.2
2018-May-30 20:00N 68°21' E 013°06'612.0
2018-May-30 19:30N 68°26' E 013°15'612.1
2018-May-30 19:00N 68°31' E 013°24'612.1
2018-May-30 18:30N 68°36' E 013°33'612.1
2018-May-30 18:00N 68°41' E 013°42'612.0
2018-May-30 17:30N 68°46' E 013°52'612.1
2018-May-30 17:00N 68°51' E 014°01'611.8
2018-May-30 16:29N 68°55' E 014°11'611.6
2018-May-30 16:00N 68°60' E 014°22'611.3
2018-May-30 15:30N 69°04' E 014°33'611.4
2018-May-30 15:00N 69°08' E 014°44'611.3
2018-May-30 14:29N 69°12' E 014°55'611.0
2018-May-30 13:58N 69°16' E 015°07'611.5
2018-May-30 13:28N 69°20' E 015°19'511.0
2018-May-30 13:00N 69°23' E 015°29'611.2
2018-May-30 12:30N 69°27' E 015°41'611.7
2018-May-30 11:59N 69°31' E 015°53'612.2
2018-May-30 11:30N 69°36' E 016°05'611.7
2018-May-30 11:00N 69°40' E 016°17'510.8
2018-May-30 10:30N 69°44' E 016°28'510.9
2018-May-30 10:00N 69°47' E 016°40'510.9
2018-May-30 09:30N 69°51' E 016°51'611.4
2018-May-30 09:00N 69°55' E 017°01'611.3
2018-May-30 08:29N 69°60' E 017°14'511.2
2018-May-30 08:00N 70°03' E 017°25'1511.2
2018-May-30 06:39N 70°14' E 017°58'211.1
2018-May-30 06:30N 70°15' E 018°02'611.5
2018-May-30 06:00N 70°19' E 018°13'611.5
2018-May-30 05:30N 70°23' E 018°26'611.5
2018-May-30 05:00N 70°27' E 018°38'611.3
2018-May-30 04:30N 70°31' E 018°50'611.0
2018-May-30 04:00N 70°34' E 019°03'611.1
2018-May-30 03:30N 70°37' E 019°17'611.3
2018-May-30 02:59N 70°40' E 019°33'4510.5
2018-May-29 22:42N 70°56' E 021°41'210.4
2018-May-29 22:29N 70°57' E 021°48'510.6
2018-May-29 22:00N 70°59' E 022°02'510.0
2018-May-29 21:30N 70°60' E 022°17'510.0
2018-May-29 21:00N 71°01' E 022°32'510.4
2018-May-29 20:30N 71°03' E 022°47'611.0
2018-May-29 20:00N 71°05' E 023°03'510.9
2018-May-29 19:30N 71°06' E 023°19'511.0
2018-May-29 19:00N 71°08' E 023°35'611.1
2018-May-29 18:29N 71°10' E 023°52'511.0
2018-May-29 18:00N 71°12' E 024°08'611.2
2018-May-29 17:30N 71°13' E 024°24'510.9
2018-May-29 17:00N 71°15' E 024°40'611.1
2018-May-29 16:30N 71°17' E 024°57'510.8
2018-May-29 16:00N 71°18' E 025°13'611.1
2018-May-29 15:30N 71°20' E 025°29'610.7
2018-May-29 14:59N 71°21' E 025°46'510.9
2018-May-29 14:30N 71°22' E 026°02'510.7
2018-May-29 14:00N 71°24' E 026°19'510.7
2018-May-29 13:30N 71°25' E 026°34'510.9
2018-May-29 13:00N 71°26' E 026°51'510.8
2018-May-29 12:30N 71°28' E 027°08'510.8
2018-May-29 12:00N 71°29' E 027°24'  
Track history (hours):
 
Tides and Currents Weather Stations Pressure Air Temp Water Temp Dewpoint Dewpoint Depression Visibility Wind Speed Wind Dir Waves Ship Positions

Kirkella

Last reported at 2018-Jun-07 17:11 UTC. Time now 2018-Jun-20 11:36 UTC.
Position N 48°42' W 005°55'.
Warning: this ship's position is 12 days out of date.

Length 84 m; draft 6.5 m.

Type: Fishing. MMSI: 235103197.

Date/timePositionNaut miles runAvg speedWind from/ knotsBaromVisibWave heightAir tempDewpointWater temp
2018-Jun-07 17:11N 48°42' W 005°55'413.6
2018-Jun-07 16:54N 48°46' W 005°52'1013.4
2018-Jun-07 16:11N 48°53' W 005°43'313.5
2018-Jun-07 15:56N 48°55' W 005°39'1113.6
2018-Jun-07 15:09N 49°01' W 005°25'213.5
2018-Jun-07 15:00N 49°02' W 005°22'713.4
2018-Jun-07 14:28N 49°05' W 005°12'7212.6
2018-Jun-07 08:45N 49°41' W 003°37'413.2
2018-Jun-07 08:28N 49°43' W 003°32'613.4
2018-Jun-07 08:00N 49°46' W 003°24'713.6
2018-Jun-07 07:30N 49°49' W 003°15'713.8
2018-Jun-07 07:00N 49°53' W 003°06'714.0
2018-Jun-07 06:30N 49°56' W 002°56'714.0
2018-Jun-07 06:00N 49°59' W 002°46'713.9
2018-Jun-07 05:30N 50°01' W 002°36'713.7
2018-Jun-07 05:00N 50°03' W 002°26'813.3
2018-Jun-07 04:26N 50°05' W 002°14'512.9
2018-Jun-07 04:00N 50°07' W 002°06'612.3
2018-Jun-07 03:30N 50°09' W 001°57'611.9
2018-Jun-07 03:00N 50°10' W 001°48'611.5
2018-Jun-07 02:30N 50°12' W 001°39'611.3
2018-Jun-07 02:01N 50°13' W 001°31'611.1
2018-Jun-07 01:30N 50°15' W 001°22'611.1
2018-Jun-07 01:00N 50°17' W 001°14'1411.7
2018-Jun-06 23:51N 50°21' W 000°54'412.5
2018-Jun-06 23:31N 50°22' W 000°48'612.7
2018-Jun-06 23:00N 50°24' W 000°38'713.1
2018-Jun-06 22:29N 50°26' W 000°28'713.5
2018-Jun-06 22:00N 50°28' W 000°18'713.7
2018-Jun-06 21:30N 50°30' W 000°08'713.8
2018-Jun-06 21:00N 50°32' E 000°02'713.9
2018-Jun-06 20:30N 50°34' E 000°13'713.9
2018-Jun-06 20:00N 50°36' E 000°23'713.7
2018-Jun-06 19:31N 50°39' E 000°33'713.4
2018-Jun-06 19:01N 50°42' E 000°43'612.9
2018-Jun-06 18:30N 50°45' E 000°51'612.4
2018-Jun-06 18:00N 50°49' E 000°59'712.2
2018-Jun-06 17:27N 50°53' E 001°08'511.9
2018-Jun-06 17:00N 50°56' E 001°15'611.4
2018-Jun-06 16:30N 51°00' E 001°21'611.9
2018-Jun-06 16:00N 51°03' E 001°29'612.5
2018-Jun-06 15:30N 51°08' E 001°36'612.6
2018-Jun-06 15:00N 51°12' E 001°43'713.5
2018-Jun-06 14:30N 51°18' E 001°48'714.1
2018-Jun-06 14:00N 51°25' E 001°52'714.0
2018-Jun-06 13:30N 51°31' E 001°55'714.1
2018-Jun-06 13:00N 51°38' E 001°60'713.8
2018-Jun-06 12:30N 51°44' E 002°04'713.5
2018-Jun-06 11:59N 51°51' E 002°08'613.0
2018-Jun-06 11:30N 51°57' E 002°12'712.5
2018-Jun-06 10:59N 52°03' E 002°14'612.1
2018-Jun-06 10:30N 52°09' E 002°16'611.7
2018-Jun-06 10:00N 52°15' E 002°17'611.4
2018-Jun-06 09:30N 52°20' E 002°18'611.0
2018-Jun-06 09:00N 52°26' E 002°19'611.7
2018-Jun-06 08:30N 52°32' E 002°19'611.8
2018-Jun-06 07:59N 52°38' E 002°18'612.1
2018-Jun-06 07:30N 52°44' E 002°18'611.7
2018-Jun-06 07:00N 52°49' E 002°16'611.9
2018-Jun-06 06:30N 52°55' E 002°13'611.7
2018-Jun-06 06:00N 52°60' E 002°07'611.4
2018-Jun-06 05:30N 53°03' E 001°60'611.2
2018-Jun-06 05:00N 53°07' E 001°52'611.4
2018-Jun-06 04:30N 53°10' E 001°45'611.4
2018-Jun-06 04:00N 53°13' E 001°37'611.5
2018-Jun-06 03:30N 53°17' E 001°29'611.7
2018-Jun-06 02:58N 53°20' E 001°20'511.9
2018-Jun-06 02:30N 53°22' E 001°12'811.9
2018-Jun-06 01:48N 53°25' E 000°59'412.0
2018-Jun-06 01:30N 53°27' E 000°53'612.1
2018-Jun-06 01:00N 53°29' E 000°43'711.3
2018-Jun-06 00:22N 53°31' E 000°32'511.7
2018-Jun-05 23:57N 53°32' E 000°24'510.2
2018-Jun-05 23:27N 53°32' E 000°16'6 2.5
2018-Jun-05 21:13N 53°34' E 000°06'310.6
2018-Jun-05 20:58N 53°35' E 000°02'612.1
2018-Jun-05 20:30N 53°37' W 000°06'5 9.5
2018-Jun-05 20:00N 53°40' W 000°13'5 9.4
2018-Jun-05 19:30N 53°44' W 000°16'0 0.8
2018-Jun-05 18:59N 53°44' W 000°16'0 0.5
2018-Jun-05 18:29N 53°45' W 000°16'0 0.0
2018-Jun-05 17:59N 53°45' W 000°16'0 0.0
2018-Jun-05 17:29N 53°45' W 000°16'0 0.0
2018-Jun-05 16:59N 53°45' W 000°16'0 0.0
2018-Jun-05 16:29N 53°45' W 000°16'0 0.0
2018-Jun-05 15:59N 53°45' W 000°16'0 0.0
2018-Jun-05 15:29N 53°45' W 000°16'0 0.0
2018-Jun-05 14:59N 53°45' W 000°16'0 0.0
2018-Jun-05 14:29N 53°45' W 000°16'0 0.0
2018-Jun-05 13:59N 53°45' W 000°16'0 0.0
2018-Jun-05 13:29N 53°45' W 000°16'0 0.0
2018-Jun-05 12:59N 53°45' W 000°16'0 0.0
2018-Jun-05 12:29N 53°45' W 000°16'0 0.0
2018-Jun-05 11:59N 53°45' W 000°16'0 0.0
2018-Jun-05 11:29N 53°45' W 000°16'0 0.0
2018-Jun-05 10:59N 53°45' W 000°16'0 0.0
2018-Jun-05 10:29N 53°45' W 000°16'0 0.0
2018-Jun-05 09:59N 53°45' W 000°16'0 0.0
2018-Jun-05 09:29N 53°45' W 000°16'0 0.0
2018-Jun-05 08:59N 53°45' W 000°16'0 0.0
2018-Jun-05 08:29N 53°45' W 000°16'0 0.0
2018-Jun-05 07:59N 53°45' W 000°16'0 0.0
2018-Jun-05 07:29N 53°45' W 000°16'0 0.0
2018-Jun-05 06:59N 53°45' W 000°16'0 0.0
2018-Jun-05 06:29N 53°45' W 000°16'0 0.0
2018-Jun-05 05:59N 53°45' W 000°16'0 0.0
2018-Jun-05 05:29N 53°45' W 000°16'0 0.0
2018-Jun-05 05:00N 53°45' W 000°16'0 0.0
2018-Jun-05 04:30N 53°45' W 000°16'0 0.0
2018-Jun-05 04:00N 53°45' W 000°16'0 0.0
2018-Jun-05 03:30N 53°45' W 000°16'0 0.0
2018-Jun-05 03:00N 53°45' W 000°16'0 0.0
2018-Jun-05 02:30N 53°45' W 000°16'0 0.0
2018-Jun-05 02:01N 53°45' W 000°16'0 0.0
2018-Jun-05 01:30N 53°45' W 000°16'0 0.0
2018-Jun-05 01:00N 53°45' W 000°16'0 0.0
2018-Jun-05 00:30N 53°45' W 000°16'0 0.0
2018-Jun-05 00:00N 53°45' W 000°16'0 0.0
2018-Jun-04 23:29N 53°45' W 000°16'0 0.0
2018-Jun-04 23:00N 53°45' W 000°16'0 0.0
2018-Jun-04 22:30N 53°45' W 000°16'0 0.0
2018-Jun-04 22:00N 53°45' W 000°16'0 0.0
2018-Jun-04 21:30N 53°45' W 000°16'0 0.0
2018-Jun-04 21:00N 53°45' W 000°16'0 0.0
2018-Jun-04 20:30N 53°45' W 000°16'0 0.0
2018-Jun-04 20:00N 53°45' W 000°16'0 0.0
2018-Jun-04 19:30N 53°45' W 000°16'0 0.0
2018-Jun-04 19:00N 53°45' W 000°16'0 0.0
2018-Jun-04 18:29N 53°45' W 000°16'0 0.0
2018-Jun-04 18:00N 53°45' W 000°16'0 0.0
2018-Jun-04 17:30N 53°45' W 000°16'0 0.0
2018-Jun-04 17:00N 53°45' W 000°16'0 0.0
2018-Jun-04 16:30N 53°45' W 000°16'0 0.0
2018-Jun-04 16:00N 53°45' W 000°16'0 0.0
2018-Jun-04 15:30N 53°45' W 000°16'0 0.0
2018-Jun-04 15:00N 53°45' W 000°16'0 0.0
2018-Jun-04 14:30N 53°45' W 000°16'0 0.0
2018-Jun-04 13:59N 53°45' W 000°16'0 0.0
2018-Jun-04 13:30N 53°45' W 000°16'0 0.0
2018-Jun-04 13:00N 53°45' W 000°16'0 0.0
2018-Jun-04 12:30N 53°45' W 000°16'0 0.0
2018-Jun-04 12:00N 53°45' W 000°16'0 0.0
2018-Jun-04 11:30N 53°45' W 000°16'0 0.0
2018-Jun-04 11:00N 53°45' W 000°16'0 0.0
2018-Jun-04 10:30N 53°45' W 000°16'0 0.0
2018-Jun-04 10:00N 53°45' W 000°16'0 0.0
2018-Jun-04 09:30N 53°45' W 000°16'0 0.0
2018-Jun-04 09:00N 53°45' W 000°16'0 0.0
2018-Jun-04 08:29N 53°45' W 000°16'0 0.0
2018-Jun-04 08:00N 53°45' W 000°16'0 0.0
2018-Jun-04 07:30N 53°45' W 000°16'0 0.0
2018-Jun-04 07:00N 53°45' W 000°16'0 0.0
2018-Jun-04 06:30N 53°45' W 000°16'0 0.0
2018-Jun-04 06:00N 53°45' W 000°16'0 0.0
2018-Jun-04 05:30N 53°45' W 000°16'0 0.0
2018-Jun-04 05:00N 53°45' W 000°16'0 0.0
2018-Jun-04 04:30N 53°45' W 000°16'0 0.0
2018-Jun-04 04:00N 53°45' W 000°16'0 0.0
2018-Jun-04 03:30N 53°45' W 000°16'0 0.0
2018-Jun-04 03:00N 53°45' W 000°16'0 0.0
2018-Jun-04 02:30N 53°45' W 000°16'0 0.0
2018-Jun-04 02:00N 53°45' W 000°16'0 0.0
2018-Jun-04 01:29N 53°45' W 000°16'0 0.0
2018-Jun-04 01:00N 53°45' W 000°16'0 0.0
2018-Jun-04 00:30N 53°45' W 000°16'0 0.0
2018-Jun-04 00:00N 53°45' W 000°16'0 0.0
2018-Jun-03 23:30N 53°45' W 000°16'0 0.0
2018-Jun-03 23:00N 53°45' W 000°16'0 0.0
2018-Jun-03 22:30N 53°45' W 000°16'0 0.0
2018-Jun-03 22:00N 53°45' W 000°16'0 0.0
2018-Jun-03 21:30N 53°45' W 000°16'0 0.0
2018-Jun-03 21:00N 53°45' W 000°16'0 0.0
2018-Jun-03 20:30N 53°45' W 000°16'0 0.0
2018-Jun-03 20:00N 53°45' W 000°16'0 0.0
2018-Jun-03 19:30N 53°45' W 000°16'0 0.0
2018-Jun-03 19:00N 53°45' W 000°16'0 0.0
2018-Jun-03 18:30N 53°45' W 000°16'0 0.0
2018-Jun-03 18:00N 53°45' W 000°16'0 0.0
2018-Jun-03 17:30N 53°45' W 000°16'0 0.0
2018-Jun-03 17:00N 53°45' W 000°16'0 0.0
2018-Jun-03 16:30N 53°45' W 000°16'0 0.0
2018-Jun-03 16:00N 53°45' W 000°16'0 0.0
2018-Jun-03 15:30N 53°45' W 000°16'0 0.0
2018-Jun-03 15:00N 53°45' W 000°16'0 0.0
2018-Jun-03 14:30N 53°45' W 000°16'0 0.0
2018-Jun-03 14:00N 53°45' W 000°16'0 0.0
2018-Jun-03 13:30N 53°45' W 000°16'0 0.0
2018-Jun-03 13:00N 53°45' W 000°16'0 0.0
2018-Jun-03 12:30N 53°45' W 000°16'0 0.0
2018-Jun-03 12:00N 53°45' W 000°16'0 0.0
2018-Jun-03 11:30N 53°45' W 000°16'0 0.0
2018-Jun-03 11:00N 53°45' W 000°16'0 0.0
2018-Jun-03 10:30N 53°45' W 000°16'0 0.0
2018-Jun-03 10:00N 53°45' W 000°16'0 0.0
2018-Jun-03 09:30N 53°45' W 000°16'0 0.0
2018-Jun-03 09:00N 53°45' W 000°16'0 0.0
2018-Jun-03 08:30N 53°45' W 000°16'0 0.5
2018-Jun-03 08:00N 53°44' W 000°16'0 0.4
2018-Jun-03 07:30N 53°44' W 000°17'3 5.3
2018-Jun-03 07:00N 53°42' W 000°14'511.1
2018-Jun-03 06:31N 53°38' W 000°09'30 7.9
2018-Jun-03 02:47N 53°57' E 000°29'311.8
2018-Jun-03 02:30N 54°00' E 000°31'710.4
2018-Jun-03 01:52N 54°07' E 000°33'4 9.8
2018-Jun-03 01:30N 54°10' E 000°34'12111.3
2018-Jun-02 14:44N 56°08' E 001°28'312.5
2018-Jun-02 14:30N 56°10' E 001°29'912.6
2018-Jun-02 13:48N 56°19' E 001°33'712.4
2018-Jun-02 13:14N 56°26' E 001°37'312.4
2018-Jun-02 12:59N 56°29' E 001°38'712.4
2018-Jun-02 12:25N 56°36' E 001°42'512.3
2018-Jun-02 12:00N 56°40' E 001°44'30312.2
2018-Jun-01 11:05N 61°32' E 004°20'112.1
2018-Jun-01 11:00N 61°33' E 004°21'612.0
2018-Jun-01 10:30N 61°39' E 004°25'612.0
2018-Jun-01 10:00N 61°45' E 004°28'611.9
2018-Jun-01 09:30N 61°51' E 004°32'611.6
2018-Jun-01 08:59N 61°56' E 004°36'612.3
2018-Jun-01 08:30N 62°02' E 004°39'612.5
2018-Jun-01 08:00N 62°08' E 004°44'612.5
2018-Jun-01 07:30N 62°14' E 004°50'612.2
2018-Jun-01 07:00N 62°19' E 004°55'612.2
2018-Jun-01 06:30N 62°25' E 005°02'612.3
2018-Jun-01 05:59N 62°30' E 005°08'612.1
2018-Jun-01 05:30N 62°35' E 005°13'611.7
2018-Jun-01 05:00N 62°41' E 005°19'35711.8
2018-May-30 22:50N 67°52' E 012°17'412.3
2018-May-30 22:30N 67°55' E 012°22'612.0
2018-May-30 22:00N 68°01' E 012°30'612.1
2018-May-30 21:30N 68°06' E 012°39'612.1
2018-May-30 20:59N 68°11' E 012°48'612.2
2018-May-30 20:30N 68°16' E 012°57'612.2
2018-May-30 20:00N 68°21' E 013°06'612.0
2018-May-30 19:30N 68°26' E 013°15'612.1
2018-May-30 19:00N 68°31' E 013°24'612.1
2018-May-30 18:30N 68°36' E 013°33'612.1
2018-May-30 18:00N 68°41' E 013°42'612.0
2018-May-30 17:30N 68°46' E 013°52'612.1
2018-May-30 17:00N 68°51' E 014°01'611.8
2018-May-30 16:29N 68°55' E 014°11'611.6
2018-May-30 16:00N 68°60' E 014°22'611.3
2018-May-30 15:30N 69°04' E 014°33'611.4
2018-May-30 15:00N 69°08' E 014°44'611.3
2018-May-30 14:29N 69°12' E 014°55'611.0
2018-May-30 13:58N 69°16' E 015°07'611.5
2018-May-30 13:28N 69°20' E 015°19'511.0
2018-May-30 13:00N 69°23' E 015°29'611.2
2018-May-30 12:30N 69°27' E 015°41'611.7
2018-May-30 11:59N 69°31' E 015°53'612.2
2018-May-30 11:30N 69°36' E 016°05'611.7
2018-May-30 11:00N 69°40' E 016°17'510.8
2018-May-30 10:30N 69°44' E 016°28'510.9
2018-May-30 10:00N 69°47' E 016°40'510.9
2018-May-30 09:30N 69°51' E 016°51'611.4
2018-May-30 09:00N 69°55' E 017°01'611.3
2018-May-30 08:29N 69°60' E 017°14'511.2
2018-May-30 08:00N 70°03' E 017°25'1511.2
2018-May-30 06:39N 70°14' E 017°58'211.1
2018-May-30 06:30N 70°15' E 018°02'611.5
2018-May-30 06:00N 70°19' E 018°13'611.5
2018-May-30 05:30N 70°23' E 018°26'611.5
2018-May-30 05:00N 70°27' E 018°38'611.3
2018-May-30 04:30N 70°31' E 018°50'611.0
2018-May-30 04:00N 70°34' E 019°03'611.1
2018-May-30 03:30N 70°37' E 019°17'611.3
2018-May-30 02:59N 70°40' E 019°33'4510.5
2018-May-29 22:42N 70°56' E 021°41'210.4
2018-May-29 22:29N 70°57' E 021°48'510.6
2018-May-29 22:00N 70°59' E 022°02'510.0
2018-May-29 21:30N 70°60' E 022°17'510.0
2018-May-29 21:00N 71°01' E 022°32'510.4
2018-May-29 20:30N 71°03' E 022°47'611.0
2018-May-29 20:00N 71°05' E 023°03'510.9
2018-May-29 19:30N 71°06' E 023°19'511.0
2018-May-29 19:00N 71°08' E 023°35'611.1
2018-May-29 18:29N 71°10' E 023°52'511.0
2018-May-29 18:00N 71°12' E 024°08'611.2
2018-May-29 17:30N 71°13' E 024°24'510.9
2018-May-29 17:00N 71°15' E 024°40'611.1
2018-May-29 16:30N 71°17' E 024°57'510.8
2018-May-29 16:00N 71°18' E 025°13'611.1
2018-May-29 15:30N 71°20' E 025°29'610.7
2018-May-29 14:59N 71°21' E 025°46'510.9
2018-May-29 14:30N 71°22' E 026°02'510.7
2018-May-29 14:00N 71°24' E 026°19'510.7
2018-May-29 13:30N 71°25' E 026°34'510.9
2018-May-29 13:00N 71°26' E 026°51'510.8
2018-May-29 12:30N 71°28' E 027°08'510.8
2018-May-29 12:00N 71°29' E 027°24'  

Dump ship's entire track history